createdAt,value
2024-05-09T00:01:49.769Z,99.90
2024-05-09T00:04:19.985Z,99.90
2024-05-09T00:06:52.582Z,99.90
2024-05-09T00:09:22.785Z,99.90
2024-05-09T00:11:53.162Z,99.90
2024-05-09T00:14:23.220Z,99.90
2024-05-09T00:16:53.282Z,99.90
2024-05-09T00:19:24.272Z,99.90
2024-05-09T00:21:56.871Z,99.90
2024-05-09T00:24:26.710Z,99.90
2024-05-09T00:26:56.697Z,99.90
2024-05-09T00:29:26.763Z,99.90
2024-05-09T00:31:56.777Z,99.90
2024-05-09T00:34:26.952Z,99.90
2024-05-09T00:36:59.546Z,99.90
2024-05-09T00:39:29.644Z,99.90
2024-05-09T00:42:00.368Z,99.90
2024-05-09T00:44:30.362Z,99.90
2024-05-09T00:47:00.733Z,99.90
2024-05-09T00:49:32.153Z,99.90
2024-05-09T00:52:09.297Z,99.90
2024-05-09T00:54:39.381Z,99.90
2024-05-09T00:57:09.516Z,99.90
2024-05-09T00:59:39.710Z,99.90
2024-05-09T01:02:09.927Z,99.90
2024-05-09T01:04:40.164Z,99.90
2024-05-09T01:07:15.305Z,99.90
2024-05-09T01:09:45.116Z,99.90
2024-05-09T01:12:15.307Z,99.90
2024-05-09T01:14:45.718Z,99.90
2024-05-09T01:17:16.427Z,99.90
2024-05-09T01:19:46.995Z,99.90
2024-05-09T01:22:19.688Z,99.90
2024-05-09T01:24:52.747Z,99.90
2024-05-09T01:27:24.515Z,99.90
2024-05-09T01:29:54.499Z,99.90
2024-05-09T01:32:24.607Z,99.90
2024-05-09T01:34:54.633Z,99.90
2024-05-09T01:37:24.556Z,99.90
2024-05-09T01:39:57.119Z,99.90
2024-05-09T01:42:27.797Z,99.90
2024-05-09T01:44:57.723Z,99.90
2024-05-09T01:47:28.118Z,99.90
2024-05-09T01:49:58.213Z,99.90
2024-05-09T01:52:28.172Z,99.90
2024-05-09T01:55:04.515Z,99.90
2024-05-09T01:57:36.644Z,99.90
2024-05-09T02:00:07.995Z,99.90
2024-05-09T02:02:40.431Z,99.90
2024-05-09T02:05:10.867Z,99.90
2024-05-09T02:07:40.837Z,99.90
2024-05-09T02:10:20.189Z,99.90
2024-05-09T02:12:53.283Z,99.90
2024-05-09T02:15:23.146Z,99.90
2024-05-09T02:17:54.148Z,99.90
2024-05-09T02:20:33.138Z,99.90
2024-05-09T02:23:06.913Z,99.90
2024-05-09T02:25:39.968Z,99.90
2024-05-09T02:28:10.037Z,99.90
2024-05-09T02:30:41.961Z,99.90
2024-05-09T02:33:14.453Z,99.90
2024-05-09T02:35:44.927Z,99.90
2024-05-09T02:38:12.842Z,99.90
2024-05-09T02:40:45.760Z,99.90
2024-05-09T02:43:13.982Z,99.90
2024-05-09T02:45:43.973Z,99.90
2024-05-09T02:48:12.457Z,99.90
2024-05-09T02:50:44.403Z,99.90
2024-05-09T02:53:12.641Z,99.90
2024-05-09T02:55:45.389Z,99.90
2024-05-09T02:58:12.739Z,99.90
2024-05-09T03:00:43.275Z,99.90
2024-05-09T03:03:13.599Z,99.90
2024-05-09T03:05:45.848Z,99.90
2024-05-09T03:08:14.663Z,99.90
2024-05-09T03:10:47.877Z,99.90
2024-05-09T03:13:16.226Z,99.90
2024-05-09T03:15:46.526Z,99.90
2024-05-09T03:18:15.225Z,99.90
2024-05-09T03:20:46.362Z,99.90
2024-05-09T03:23:13.880Z,99.90
2024-05-09T03:25:43.915Z,99.90
2024-05-09T03:28:15.019Z,99.90
2024-05-09T03:30:46.647Z,99.90
2024-05-09T03:33:17.954Z,99.90
2024-05-09T03:35:49.858Z,99.90
2024-05-09T03:38:19.861Z,99.90
2024-05-09T03:40:51.126Z,99.90
2024-05-09T03:43:23.860Z,99.90
2024-05-09T03:45:51.357Z,99.90
2024-05-09T03:48:22.177Z,99.90
2024-05-09T03:50:50.710Z,99.90
2024-05-09T03:53:20.908Z,99.90
2024-05-09T03:55:49.933Z,99.90
2024-05-09T03:58:19.893Z,99.90
2024-05-09T04:00:49.903Z,99.90
2024-05-09T04:03:20.836Z,99.90
2024-05-09T04:05:48.271Z,99.90
2024-05-09T04:08:18.357Z,99.90
2024-05-09T04:10:45.966Z,99.90
2024-05-09T04:13:15.982Z,99.90
2024-05-09T04:15:44.312Z,99.90
2024-05-09T04:18:19.690Z,99.90
2024-05-09T04:20:47.063Z,99.90
2024-05-09T04:23:17.326Z,99.90
2024-05-09T04:25:45.782Z,99.90
2024-05-09T04:28:16.610Z,99.90
2024-05-09T04:30:44.375Z,99.90
2024-05-09T04:33:19.907Z,99.90
2024-05-09T04:35:49.521Z,99.90
2024-05-09T04:38:20.078Z,99.90
2024-05-09T04:40:47.811Z,99.90
2024-05-09T04:43:20.493Z,99.90
2024-05-09T04:45:47.849Z,99.90
2024-05-09T04:48:20.809Z,99.90
2024-05-09T04:50:48.287Z,99.90
2024-05-09T04:53:18.901Z,99.90
2024-05-09T04:55:46.434Z,99.90
2024-05-09T04:58:16.397Z,99.90
2024-05-09T05:00:44.514Z,99.90
2024-05-09T05:03:16.131Z,99.90
2024-05-09T05:05:47.651Z,99.90
2024-05-09T05:08:19.237Z,99.90
2024-05-09T05:10:48.673Z,99.90
2024-05-09T05:13:20.967Z,99.90
2024-05-09T05:15:51.330Z,99.90
2024-05-09T05:18:21.524Z,99.90
2024-05-09T05:20:51.829Z,99.90
2024-05-09T05:23:23.275Z,99.90
2024-05-09T05:25:53.448Z,99.90
2024-05-09T05:28:24.676Z,99.90
2024-05-09T05:30:52.704Z,99.90
2024-05-09T05:33:23.863Z,99.90
2024-05-09T05:35:54.146Z,99.90
2024-05-09T05:38:27.406Z,99.90
2024-05-09T05:40:56.257Z,99.90
2024-05-09T05:43:26.314Z,99.90
2024-05-09T05:45:53.605Z,99.90
2024-05-09T05:48:23.968Z,99.90
2024-05-09T05:50:54.116Z,99.90
2024-05-09T05:53:24.231Z,99.90
2024-05-09T05:55:51.790Z,99.90
2024-05-09T05:58:22.549Z,99.90
2024-05-09T06:00:53.343Z,99.90
2024-05-09T06:03:24.452Z,99.90
2024-05-09T06:05:54.546Z,99.90
2024-05-09T06:08:27.117Z,99.90
2024-05-09T06:10:56.958Z,99.90
2024-05-09T06:13:26.935Z,99.90
2024-05-09T06:15:54.616Z,99.90
2024-05-09T06:18:24.878Z,99.90
2024-05-09T06:20:54.959Z,99.90
2024-05-09T06:23:24.933Z,99.90
2024-05-09T06:25:53.072Z,99.90
2024-05-09T06:28:22.966Z,99.90
2024-05-09T06:30:50.240Z,99.60
2024-05-09T06:33:20.386Z,99.10
2024-05-09T06:35:47.833Z,99.90
2024-05-09T06:38:22.126Z,99.40
2024-05-09T06:40:49.638Z,99.80
2024-05-09T06:43:20.274Z,98.30
2024-05-09T06:45:48.841Z,97.20
2024-05-09T06:48:21.750Z,96.50
2024-05-09T06:50:51.298Z,97.10
2024-05-09T06:53:25.172Z,95.20
2024-05-09T06:55:52.861Z,95.40
2024-05-09T06:58:22.821Z,94.50
2024-05-09T07:00:50.282Z,93.60
2024-05-09T07:03:20.823Z,93.90
2024-05-09T07:05:49.521Z,92.70
2024-05-09T07:08:23.237Z,91.90
2024-05-09T07:10:50.676Z,90.90
2024-05-09T07:13:20.990Z,92.00
2024-05-09T07:15:48.234Z,91.50
2024-05-09T07:18:20.205Z,91.90
2024-05-09T07:20:49.847Z,90.50
2024-05-09T07:23:23.884Z,91.60
2024-05-09T07:25:51.572Z,90.00
2024-05-09T07:28:23.439Z,91.10
2024-05-09T07:30:50.839Z,90.30
2024-05-09T07:33:24.409Z,87.90
2024-05-09T07:35:52.691Z,87.20
2024-05-09T07:38:25.602Z,87.70
2024-05-09T07:40:52.951Z,87.40
2024-05-09T07:43:24.788Z,88.20
2024-05-09T07:45:54.788Z,85.80
2024-05-09T07:50:00.223Z,84.20
2024-05-09T07:53:53.439Z,84.90
2024-05-09T07:56:26.444Z,84.40
2024-05-09T07:58:55.591Z,80.10
2024-05-09T08:01:27.929Z,81.60
2024-05-09T08:03:55.714Z,80.80
2024-05-09T08:06:26.881Z,81.80
2024-05-09T08:08:59.158Z,78.30
2024-05-09T08:11:30.668Z,76.90
2024-05-09T08:13:58.122Z,76.30
2024-05-09T08:16:28.980Z,77.30
2024-05-09T08:18:56.627Z,73.80
2024-05-09T08:21:26.724Z,72.30
2024-05-09T08:23:56.738Z,72.00
2024-05-09T08:26:26.650Z,73.80
2024-05-09T08:28:53.908Z,76.50
2024-05-09T08:31:23.866Z,70.80
2024-05-09T08:33:52.279Z,72.30
2024-05-09T08:36:22.530Z,69.10
2024-05-09T08:38:49.815Z,67.00
2024-05-09T08:41:24.031Z,65.60
2024-05-09T08:43:53.009Z,67.60
2024-05-09T08:46:23.227Z,67.50
2024-05-09T08:48:56.624Z,68.70
2024-05-09T08:51:26.918Z,64.40
2024-05-09T08:53:55.206Z,64.60
2024-05-09T08:56:30.830Z,64.10
2024-05-09T08:59:01.840Z,65.10
2024-05-09T09:01:34.137Z,66.10
2024-05-09T09:04:05.308Z,65.00
2024-05-09T09:06:37.470Z,63.30
2024-05-09T09:09:05.468Z,61.30
2024-05-09T09:11:38.180Z,64.20
2024-05-09T09:14:05.520Z,63.10
2024-05-09T09:16:36.530Z,63.30
2024-05-09T09:19:05.559Z,62.30
2024-05-09T09:21:35.713Z,59.90
2024-05-09T09:24:03.236Z,62.30
2024-05-09T09:26:34.354Z,62.50
2024-05-09T09:29:05.172Z,62.60
2024-05-09T09:31:35.080Z,60.00
2024-05-09T09:34:07.626Z,59.90
2024-05-09T09:36:41.135Z,62.40
2024-05-09T09:39:10.029Z,63.00
2024-05-09T09:41:42.019Z,60.20
2024-05-09T09:44:12.217Z,61.30
2024-05-09T09:46:43.264Z,60.70
2024-05-09T09:49:12.394Z,63.20
2024-05-09T09:51:44.838Z,65.20
2024-05-09T09:54:14.908Z,64.40
2024-05-09T09:56:48.470Z,60.80
2024-05-09T09:59:19.711Z,66.10
2024-05-09T10:01:49.759Z,61.60
2024-05-09T10:04:18.993Z,65.20
2024-05-09T10:06:53.620Z,61.00
2024-05-09T10:09:21.850Z,61.00
2024-05-09T10:11:59.746Z,59.80
2024-05-09T10:14:33.485Z,61.10
2024-05-09T10:17:07.445Z,60.90
2024-05-09T10:19:35.616Z,58.40
2024-05-09T10:22:08.863Z,57.90
2024-05-09T10:24:50.628Z,60.20
2024-05-09T10:27:29.340Z,61.80
2024-05-09T10:30:06.910Z,62.20
2024-05-09T10:32:40.122Z,69.50
2024-05-09T10:35:11.683Z,66.80
2024-05-09T10:37:39.384Z,65.30
2024-05-09T10:40:17.244Z,62.10
2024-05-09T10:42:50.538Z,64.50
2024-05-09T10:45:24.766Z,63.40
2024-05-09T10:47:52.428Z,59.90
2024-05-09T10:50:28.506Z,60.80
2024-05-09T10:52:59.307Z,57.90
2024-05-09T10:55:29.647Z,59.80
2024-05-09T10:57:59.130Z,66.00
2024-05-09T11:00:36.891Z,63.60
2024-05-09T11:03:05.050Z,66.90
2024-05-09T11:05:36.477Z,62.90
2024-05-09T11:08:04.781Z,64.20
2024-05-09T11:10:35.792Z,64.70
2024-05-09T11:13:03.511Z,64.90
2024-05-09T11:15:43.915Z,67.70
2024-05-09T11:18:24.627Z,65.20
2024-05-09T11:20:56.576Z,67.60
2024-05-09T11:23:26.240Z,65.00
2024-05-09T11:25:57.362Z,60.10
2024-05-09T11:28:28.391Z,64.60
2024-05-09T11:31:10.967Z,60.70
2024-05-09T11:33:39.933Z,59.90
2024-05-09T11:36:11.272Z,58.90
2024-05-09T11:38:38.548Z,60.90
2024-05-09T11:41:09.386Z,61.60
2024-05-09T11:43:36.732Z,63.30
2024-05-09T11:46:09.391Z,64.50
2024-05-09T11:48:36.986Z,63.50
2024-05-09T11:51:07.772Z,62.00
2024-05-09T11:53:35.235Z,61.90
2024-05-09T11:56:05.528Z,58.50
2024-05-09T11:58:34.736Z,59.40
2024-05-09T12:01:05.068Z,61.80
2024-05-09T12:03:35.283Z,61.80
2024-05-09T12:06:07.696Z,63.60
2024-05-09T12:08:35.152Z,63.10
2024-05-09T12:11:06.813Z,60.20
2024-05-09T12:13:34.189Z,60.40
2024-05-09T12:16:04.539Z,62.00
2024-05-09T12:18:34.698Z,60.40
2024-05-09T12:21:05.073Z,64.70
2024-05-09T12:23:32.382Z,63.30
2024-05-09T12:26:03.453Z,65.20
2024-05-09T12:28:30.755Z,62.40
2024-05-09T12:31:00.790Z,60.30
2024-05-09T12:33:29.654Z,58.70
2024-05-09T12:36:02.731Z,61.40
2024-05-09T12:38:31.028Z,60.10
2024-05-09T12:41:01.003Z,60.20
2024-05-09T12:43:28.520Z,62.00
2024-05-09T12:45:58.645Z,59.70
2024-05-09T12:48:26.243Z,62.00
2024-05-09T12:50:57.640Z,60.60
2024-05-09T12:53:28.627Z,61.80
2024-05-09T12:56:02.342Z,61.40
2024-05-09T12:58:31.420Z,62.60
2024-05-09T13:01:01.511Z,63.50
2024-05-09T13:03:29.273Z,62.60
2024-05-09T13:05:59.485Z,63.90
2024-05-09T13:08:30.544Z,65.30
2024-05-09T13:11:01.190Z,63.90
2024-05-09T13:13:29.315Z,65.20
2024-05-09T13:16:00.930Z,66.30
2024-05-09T13:18:28.948Z,66.60
2024-05-09T13:20:58.885Z,67.40
2024-05-09T13:23:26.475Z,65.40
2024-05-09T13:25:58.986Z,64.90
2024-05-09T13:28:26.851Z,61.00
2024-05-09T13:30:57.034Z,59.10
2024-05-09T13:33:25.722Z,59.00
2024-05-09T13:35:56.448Z,58.50
2024-05-09T13:38:24.324Z,59.60
2024-05-09T13:40:54.741Z,61.80
2024-05-09T13:43:25.621Z,63.50
2024-05-09T13:45:57.429Z,61.00
2024-05-09T13:48:25.321Z,61.50
2024-05-09T13:50:55.366Z,62.70
2024-05-09T13:53:22.775Z,61.00
2024-05-09T13:55:52.908Z,63.60
2024-05-09T13:58:20.609Z,63.90
2024-05-09T14:00:53.415Z,63.90
2024-05-09T14:03:21.325Z,64.70
2024-05-09T14:05:52.430Z,64.70
2024-05-09T14:08:22.104Z,64.80
2024-05-09T14:10:53.706Z,66.30
2024-05-09T14:13:21.320Z,62.80
2024-05-09T14:15:54.112Z,63.90
2024-05-09T14:18:21.758Z,63.30
2024-05-09T14:20:51.735Z,65.00
2024-05-09T14:23:19.020Z,64.50
2024-05-09T14:25:52.371Z,64.30
2024-05-09T14:28:20.685Z,65.90
2024-05-09T14:30:53.610Z,63.70
2024-05-09T14:33:26.674Z,63.00
2024-05-09T14:35:57.078Z,62.60
2024-05-09T14:38:24.446Z,61.80
2024-05-09T14:40:54.453Z,60.50
2024-05-09T14:43:23.134Z,61.00
2024-05-09T14:45:56.135Z,60.20
2024-05-09T14:48:23.965Z,62.10
2024-05-09T14:50:53.966Z,63.70
2024-05-09T14:53:23.508Z,64.40
2024-05-09T14:55:53.604Z,65.00
2024-05-09T14:58:21.147Z,63.00
2024-05-09T15:00:52.151Z,62.70
2024-05-09T15:03:22.861Z,61.10
2024-05-09T15:05:53.431Z,62.20
2024-05-09T15:08:20.954Z,62.50
2024-05-09T15:10:52.112Z,63.00
2024-05-09T15:13:20.812Z,63.60
2024-05-09T15:15:51.027Z,63.00
2024-05-09T15:18:18.860Z,62.10
2024-05-09T15:20:51.803Z,63.80
2024-05-09T15:23:19.144Z,61.00
2024-05-09T15:25:49.431Z,62.60
2024-05-09T15:28:20.208Z,62.80
2024-05-09T15:30:48.271Z,62.10
2024-05-09T15:33:18.773Z,62.00
2024-05-09T15:35:51.024Z,62.80
2024-05-09T15:38:21.086Z,66.90
2024-05-09T15:40:49.148Z,65.70
2024-05-09T15:43:19.257Z,63.90
2024-05-09T15:45:50.162Z,65.40
2024-05-09T15:48:17.880Z,62.20
2024-05-09T15:50:51.028Z,62.50
2024-05-09T15:53:18.931Z,65.20
2024-05-09T15:55:49.519Z,62.50
2024-05-09T15:58:17.178Z,62.80
2024-05-09T16:00:50.583Z,65.60
2024-05-09T16:03:21.327Z,66.00
2024-05-09T16:05:57.558Z,66.40
2024-05-09T16:08:25.823Z,66.70
2024-05-09T16:10:56.012Z,65.80
2024-05-09T16:13:23.416Z,66.50
2024-05-09T16:15:54.292Z,67.40
2024-05-09T16:18:21.795Z,66.60
2024-05-09T16:20:59.593Z,68.30
2024-05-09T16:23:26.997Z,65.20
2024-05-09T16:25:57.308Z,64.50
2024-05-09T16:28:26.934Z,64.80
2024-05-09T16:30:58.147Z,66.10
2024-05-09T16:33:26.123Z,64.90
2024-05-09T16:36:00.530Z,63.80
2024-05-09T16:38:28.662Z,64.50
2024-05-09T16:40:58.938Z,65.00
2024-05-09T16:43:28.099Z,64.10
2024-05-09T16:45:58.161Z,64.00
2024-05-09T16:48:25.676Z,64.80
2024-05-09T16:50:55.751Z,66.10
2024-05-09T16:53:26.320Z,66.40
2024-05-09T16:55:56.541Z,66.10
2024-05-09T16:58:24.466Z,67.50
2024-05-09T17:00:54.676Z,67.70
2024-05-09T17:03:23.631Z,68.30
2024-05-09T17:05:53.646Z,65.80
2024-05-09T17:08:21.035Z,67.60
2024-05-09T17:10:54.021Z,66.90
2024-05-09T17:13:24.484Z,69.50
2024-05-09T17:15:54.596Z,70.80
2024-05-09T17:18:24.700Z,70.50
2024-05-09T17:20:52.524Z,70.70
2024-05-09T17:23:22.442Z,70.20
2024-05-09T17:25:55.718Z,71.80
2024-05-09T17:28:23.636Z,71.30
2024-05-09T17:30:53.951Z,71.60
2024-05-09T17:33:22.628Z,72.30
2024-05-09T17:35:52.850Z,73.00
2024-05-09T17:38:22.974Z,72.80
2024-05-09T17:40:56.271Z,73.30
2024-05-09T17:43:23.930Z,74.00
2024-05-09T17:45:54.188Z,73.50
2024-05-09T17:48:21.782Z,73.70
2024-05-09T17:50:52.403Z,74.50
2024-05-09T17:53:20.361Z,75.10
2024-05-09T17:55:53.901Z,75.50
2024-05-09T17:58:24.999Z,75.30
2024-05-09T18:00:55.283Z,75.30
2024-05-09T18:03:23.719Z,75.70
2024-05-09T18:05:54.209Z,76.90
2024-05-09T18:08:21.505Z,77.40
2024-05-09T18:10:54.057Z,78.30
2024-05-09T18:13:26.304Z,79.80
2024-05-09T18:15:56.449Z,79.60
2024-05-09T18:18:23.858Z,79.60
2024-05-09T18:20:53.780Z,79.40
2024-05-09T18:23:21.838Z,79.30
2024-05-09T18:25:54.621Z,80.80
2024-05-09T18:28:24.856Z,80.90
2024-05-09T18:30:55.925Z,80.50
2024-05-09T18:33:24.583Z,81.30
2024-05-09T18:35:55.281Z,80.00
2024-05-09T18:38:26.680Z,80.10
2024-05-09T18:40:57.953Z,80.60
2024-05-09T18:43:38.005Z,81.60
2024-05-09T18:46:12.071Z,81.20
2024-05-09T18:48:40.377Z,81.10
2024-05-09T18:51:10.370Z,80.50
2024-05-09T18:53:37.617Z,80.80
2024-05-09T18:56:09.571Z,80.20
2024-05-09T18:58:39.442Z,84.10
2024-05-09T19:01:09.628Z,85.10
2024-05-09T19:03:37.412Z,85.50
2024-05-09T19:06:07.928Z,84.50
2024-05-09T19:08:35.316Z,86.30
2024-05-09T19:11:05.296Z,85.20
2024-05-09T19:13:32.888Z,87.30
2024-05-09T19:16:06.006Z,87.20
2024-05-09T19:18:33.539Z,87.90
2024-05-09T19:21:03.807Z,88.70
2024-05-09T19:23:35.251Z,88.60
2024-05-09T19:26:08.503Z,88.60
2024-05-09T19:28:35.844Z,88.00
2024-05-09T19:31:08.807Z,88.70
2024-05-09T19:33:36.948Z,89.90
2024-05-09T19:36:08.234Z,88.60
2024-05-09T19:38:36.357Z,88.20
2024-05-09T19:41:06.350Z,90.00
2024-05-09T19:43:36.058Z,91.20
2024-05-09T19:46:09.024Z,91.30
2024-05-09T19:48:37.376Z,91.60
2024-05-09T19:51:07.838Z,91.20
2024-05-09T19:53:35.930Z,90.90
2024-05-09T19:56:06.511Z,91.80
2024-05-09T19:58:33.773Z,92.10
2024-05-09T20:01:04.285Z,92.00
2024-05-09T20:03:36.845Z,92.70
2024-05-09T20:06:07.339Z,92.50
2024-05-09T20:08:34.670Z,92.80
2024-05-09T20:11:04.545Z,92.10
2024-05-09T20:13:31.900Z,92.80
2024-05-09T20:16:01.922Z,92.60
2024-05-09T20:18:30.151Z,92.80
2024-05-09T20:21:04.102Z,93.40
2024-05-09T20:23:31.476Z,92.70
2024-05-09T20:26:01.400Z,93.20
2024-05-09T20:28:29.790Z,93.70
2024-05-09T20:31:00.173Z,93.70
2024-05-09T20:33:28.981Z,94.30
2024-05-09T20:36:01.843Z,94.40
2024-05-09T20:38:32.263Z,94.10
2024-05-09T20:41:02.408Z,95.40
2024-05-09T20:43:29.723Z,95.10
2024-05-09T20:45:59.753Z,95.70
2024-05-09T20:48:27.122Z,95.20
2024-05-09T20:50:57.166Z,94.90
2024-05-09T20:53:24.425Z,95.50
2024-05-09T20:55:57.009Z,96.10
2024-05-09T20:58:24.345Z,97.20
2024-05-09T21:00:54.495Z,97.50
2024-05-09T21:03:21.877Z,98.00
2024-05-09T21:05:52.463Z,98.20
2024-05-09T21:08:19.872Z,98.50
2024-05-09T21:10:49.880Z,98.40
2024-05-09T21:13:19.875Z,98.40
2024-05-09T21:15:50.120Z,98.20
2024-05-09T21:18:17.537Z,97.60
2024-05-09T21:20:47.466Z,97.20
2024-05-09T21:23:15.518Z,96.90
2024-05-09T21:25:45.512Z,97.50
2024-05-09T21:28:14.863Z,97.40
2024-05-09T21:30:47.544Z,97.90
2024-05-09T21:33:15.471Z,97.80
2024-05-09T21:35:46.463Z,97.90
2024-05-09T21:38:15.056Z,99.40
2024-05-09T21:40:45.619Z,99.90
2024-05-09T21:43:13.302Z,99.90
2024-05-09T21:45:43.840Z,99.90
2024-05-09T21:48:14.061Z,99.90
2024-05-09T21:50:44.432Z,99.90
2024-05-09T21:53:12.688Z,99.90
2024-05-09T21:55:43.857Z,99.90
2024-05-09T21:58:12.000Z,99.90
2024-05-09T22:00:42.991Z,99.90
2024-05-09T22:03:11.710Z,99.90
2024-05-09T22:05:45.349Z,99.90
2024-05-09T22:08:13.076Z,99.90
2024-05-09T22:10:43.202Z,99.90
2024-05-09T22:13:10.664Z,99.90
2024-05-09T22:15:41.869Z,99.90
2024-05-09T22:18:10.363Z,99.90
2024-05-09T22:20:46.320Z,99.90
2024-05-09T22:23:15.105Z,99.90
2024-05-09T22:25:45.565Z,99.90
2024-05-09T22:28:14.564Z,99.90
2024-05-09T22:30:46.758Z,99.90
2024-05-09T22:33:15.162Z,99.90
2024-05-09T22:35:48.141Z,99.90
2024-05-09T22:38:15.531Z,99.90
2024-05-09T22:40:48.786Z,99.90
2024-05-09T22:43:19.657Z,99.90
2024-05-09T22:45:50.421Z,99.90
2024-05-09T22:48:18.291Z,99.90
2024-05-09T22:50:51.088Z,99.90
2024-05-09T22:53:18.593Z,99.90
2024-05-09T22:55:48.497Z,99.90
2024-05-09T22:58:15.965Z,99.90
2024-05-09T23:00:46.400Z,99.90
2024-05-09T23:03:15.793Z,99.90
2024-05-09T23:05:46.168Z,99.90
2024-05-09T23:08:16.209Z,99.90
2024-05-09T23:10:46.338Z,99.90
2024-05-09T23:13:13.708Z,99.90
2024-05-09T23:15:43.804Z,99.90
2024-05-09T23:18:11.709Z,99.90
2024-05-09T23:20:41.721Z,99.90
2024-05-09T23:23:11.016Z,99.90
2024-05-09T23:25:44.631Z,99.90
2024-05-09T23:28:12.707Z,99.90
2024-05-09T23:30:42.869Z,99.90
2024-05-09T23:33:11.955Z,99.90
2024-05-09T23:35:44.970Z,99.90
2024-05-09T23:38:12.840Z,99.90
2024-05-09T23:40:45.934Z,99.90
2024-05-09T23:43:14.231Z,99.90
2024-05-09T23:45:44.326Z,99.90
2024-05-09T23:48:11.946Z,99.90
2024-05-09T23:50:42.143Z,99.90
2024-05-09T23:53:10.528Z,99.90
2024-05-09T23:55:41.302Z,99.90
2024-05-09T23:58:11.691Z,99.90
